sensor_id;sensor_type;location;lat;lon;timestamp;pressure;altitude;pressure_sealevel;temperature;humidity
77019;BME280;66044;53.142;17.962;2023-01-25T00:01:58;103294.02;;;0.44;69.16
77019;BME280;66044;53.142;17.962;2023-01-25T00:04:24;103293.17;;;0.48;69.28
77019;BME280;66044;53.142;17.962;2023-01-25T00:06:50;103293.76;;;0.49;69.38
77019;BME280;66044;53.142;17.962;2023-01-25T00:09:17;103293.22;;;0.49;69.42
77019;BME280;66044;53.142;17.962;2023-01-25T00:11:44;103291.89;;;0.50;69.36
77019;BME280;66044;53.142;17.962;2023-01-25T00:14:10;103285.34;;;0.50;69.33
77019;BME280;66044;53.142;17.962;2023-01-25T00:16:37;103283.33;;;0.46;69.18
77019;BME280;66044;53.142;17.962;2023-01-25T00:19:05;103276.78;;;0.45;69.08
77019;BME280;66044;53.142;17.962;2023-01-25T00:21:31;103273.67;;;0.43;69.14
77019;BME280;66044;53.142;17.962;2023-01-25T00:23:58;103273.91;;;0.36;69.28
77019;BME280;66044;53.142;17.962;2023-01-25T00:26:24;103275.29;;;0.31;69.01
77019;BME280;66044;53.142;17.962;2023-01-25T00:28:51;103271.30;;;0.29;69.04
77019;BME280;66044;53.142;17.962;2023-01-25T00:36:56;103263.08;;;0.28;68.93
77019;BME280;66044;53.142;17.962;2023-01-25T00:39:24;103262.88;;;0.28;69.14
77019;BME280;66044;53.142;17.962;2023-01-25T00:41:50;103258.32;;;0.28;68.76
77019;BME280;66044;53.142;17.962;2023-01-25T00:44:16;103252.21;;;0.27;69.23
77019;BME280;66044;53.142;17.962;2023-01-25T00:46:42;103257.23;;;0.25;68.97
77019;BME280;66044;53.142;17.962;2023-01-25T00:49:20;103254.41;;;0.22;69.26
77019;BME280;66044;53.142;17.962;2023-01-25T00:51:47;103251.64;;;0.21;69.09
77019;BME280;66044;53.142;17.962;2023-01-25T00:54:13;103249.59;;;0.19;69.29
77019;BME280;66044;53.142;17.962;2023-01-25T00:56:39;103248.52;;;0.16;69.48
77019;BME280;66044;53.142;17.962;2023-01-25T00:59:05;103246.30;;;0.13;69.34
77019;BME280;66044;53.142;17.962;2023-01-25T01:01:31;103240.55;;;0.11;69.52
77019;BME280;66044;53.142;17.962;2023-01-25T01:03:57;103240.11;;;0.12;69.32
77019;BME280;66044;53.142;17.962;2023-01-25T01:06:22;103238.54;;;0.13;69.38
77019;BME280;66044;53.142;17.962;2023-01-25T01:08:48;103231.18;;;0.15;69.49
77019;BME280;66044;53.142;17.962;2023-01-25T01:11:14;103230.33;;;0.19;69.66
77019;BME280;66044;53.142;17.962;2023-01-25T01:13:40;103228.91;;;0.22;69.47
77019;BME280;66044;53.142;17.962;2023-01-25T01:16:07;103224.73;;;0.24;69.51
77019;BME280;66044;53.142;17.962;2023-01-25T01:18:38;103223.12;;;0.24;69.30
77019;BME280;66044;53.142;17.962;2023-01-25T01:21:05;103219.88;;;0.25;69.26
77019;BME280;66044;53.142;17.962;2023-01-25T01:23:31;103218.34;;;0.26;69.29
77019;BME280;66044;53.142;17.962;2023-01-25T01:26:01;103220.00;;;0.26;69.47
77019;BME280;66044;53.142;17.962;2023-01-25T01:28:28;103212.77;;;0.23;69.37
77019;BME280;66044;53.142;17.962;2023-01-25T01:31:02;103206.55;;;0.19;69.77
77019;BME280;66044;53.142;17.962;2023-01-25T01:33:29;103201.88;;;0.16;69.57
77019;BME280;66044;53.142;17.962;2023-01-25T01:35:55;103193.30;;;0.14;69.63
77019;BME280;66044;53.142;17.962;2023-01-25T01:38:21;103195.39;;;0.11;69.45
77019;BME280;66044;53.142;17.962;2023-01-25T01:40:49;103195.92;;;0.12;69.72
77019;BME280;66044;53.142;17.962;2023-01-25T01:43:19;103194.16;;;0.14;69.69
77019;BME280;66044;53.142;17.962;2023-01-25T01:45:50;103197.59;;;0.19;69.64
77019;BME280;66044;53.142;17.962;2023-01-25T01:48:43;103198.76;;;0.24;69.47
77019;BME280;66044;53.142;17.962;2023-01-25T01:54:01;103201.98;;;0.37;69.68
77019;BME280;66044;53.142;17.962;2023-01-25T01:56:39;103200.77;;;0.41;69.41
77019;BME280;66044;53.142;17.962;2023-01-25T01:59:09;103194.44;;;0.43;69.68
77019;BME280;66044;53.142;17.962;2023-01-25T02:01:35;103189.67;;;0.43;69.43
77019;BME280;66044;53.142;17.962;2023-01-25T02:04:01;103186.83;;;0.43;69.60
77019;BME280;66044;53.142;17.962;2023-01-25T02:06:43;103179.70;;;0.40;69.43
77019;BME280;66044;53.142;17.962;2023-01-25T02:09:14;103175.14;;;0.36;69.48
77019;BME280;66044;53.142;17.962;2023-01-25T02:11:41;103171.60;;;0.32;69.45
77019;BME280;66044;53.142;17.962;2023-01-25T02:14:07;103171.39;;;0.28;69.35
77019;BME280;66044;53.142;17.962;2023-01-25T02:16:33;103177.18;;;0.25;69.27
77019;BME280;66044;53.142;17.962;2023-01-25T02:19:00;103174.40;;;0.24;69.40
77019;BME280;66044;53.142;17.962;2023-01-25T02:21:30;103178.95;;;0.21;69.60
77019;BME280;66044;53.142;17.962;2023-01-25T02:24:06;103173.76;;;0.18;69.28
77019;BME280;66044;53.142;17.962;2023-01-25T02:26:32;103164.98;;;0.18;69.32
77019;BME280;66044;53.142;17.962;2023-01-25T02:29:02;103166.98;;;0.20;69.30
77019;BME280;66044;53.142;17.962;2023-01-25T02:31:28;103160.45;;;0.23;69.37
77019;BME280;66044;53.142;17.962;2023-01-25T02:33:54;103155.88;;;0.26;69.16
77019;BME280;66044;53.142;17.962;2023-01-25T02:36:26;103154.31;;;0.31;69.20
77019;BME280;66044;53.142;17.962;2023-01-25T02:38:59;103151.69;;;0.33;69.34
77019;BME280;66044;53.142;17.962;2023-01-25T02:41:36;103141.68;;;0.33;69.24
77019;BME280;66044;53.142;17.962;2023-01-25T02:44:06;103138.94;;;0.31;69.30
77019;BME280;66044;53.142;17.962;2023-01-25T02:46:35;103142.52;;;0.28;69.27
77019;BME280;66044;53.142;17.962;2023-01-25T02:49:04;103141.40;;;0.26;69.27
77019;BME280;66044;53.142;17.962;2023-01-25T02:51:33;103135.29;;;0.24;69.05
77019;BME280;66044;53.142;17.962;2023-01-25T02:54:00;103134.84;;;0.23;69.32
77019;BME280;66044;53.142;17.962;2023-01-25T02:56:27;103134.17;;;0.19;69.35
77019;BME280;66044;53.142;17.962;2023-01-25T02:58:53;103126.80;;;0.15;69.68
77019;BME280;66044;53.142;17.962;2023-01-25T03:01:19;103128.05;;;0.10;69.77
77019;BME280;66044;53.142;17.962;2023-01-25T03:03:45;103124.17;;;0.05;69.55
77019;BME280;66044;53.142;17.962;2023-01-25T03:06:11;103126.67;;;0.02;69.70
77019;BME280;66044;53.142;17.962;2023-01-25T03:08:37;103118.34;;;0.02;69.33
77019;BME280;66044;53.142;17.962;2023-01-25T03:11:05;103120.33;;;0.02;69.45
77019;BME280;66044;53.142;17.962;2023-01-25T03:13:32;103118.42;;;0.03;69.48
77019;BME280;66044;53.142;17.962;2023-01-25T03:16:04;103117.98;;;0.04;69.72
77019;BME280;66044;53.142;17.962;2023-01-25T03:18:31;103116.23;;;0.02;69.87
77019;BME280;66044;53.142;17.962;2023-01-25T03:21:04;103114.22;;;0.04;69.70
77019;BME280;66044;53.142;17.962;2023-01-25T03:23:30;103107.92;;;0.04;69.46
77019;BME280;66044;53.142;17.962;2023-01-25T03:26:10;103112.16;;;0.01;69.83
77019;BME280;66044;53.142;17.962;2023-01-25T03:28:38;103106.04;;;-0.00;69.67
77019;BME280;66044;53.142;17.962;2023-01-25T03:31:05;103100.70;;;-0.02;69.88
77019;BME280;66044;53.142;17.962;2023-01-25T03:33:31;103097.88;;;-0.04;69.83
77019;BME280;66044;53.142;17.962;2023-01-25T03:35:57;103097.36;;;-0.07;70.21
77019;BME280;66044;53.142;17.962;2023-01-25T03:38:23;103088.91;;;-0.10;69.68
77019;BME280;66044;53.142;17.962;2023-01-25T03:40:50;103089.48;;;-0.13;69.99
77019;BME280;66044;53.142;17.962;2023-01-25T03:43:16;103083.96;;;-0.13;70.05
77019;BME280;66044;53.142;17.962;2023-01-25T03:45:42;103074.96;;;-0.11;69.69
77019;BME280;66044;53.142;17.962;2023-01-25T03:48:08;103069.20;;;-0.10;69.86
77019;BME280;66044;53.142;17.962;2023-01-25T03:50:34;103062.91;;;-0.06;70.07
77019;BME280;66044;53.142;17.962;2023-01-25T03:53:00;103057.20;;;-0.00;69.94
77019;BME280;66044;53.142;17.962;2023-01-25T03:55:27;103050.61;;;0.05;69.81
77019;BME280;66044;53.142;17.962;2023-01-25T03:57:53;103049.03;;;0.09;69.82
77019;BME280;66044;53.142;17.962;2023-01-25T04:00:19;103041.52;;;0.07;69.82
77019;BME280;66044;53.142;17.962;2023-01-25T04:02:45;103041.58;;;0.04;69.68
77019;BME280;66044;53.142;17.962;2023-01-25T04:05:12;103044.16;;;0.03;69.97
77019;BME280;66044;53.142;17.962;2023-01-25T04:07:38;103037.86;;;0.01;70.05
77019;BME280;66044;53.142;17.962;2023-01-25T04:10:05;103034.89;;;-0.03;69.98
77019;BME280;66044;53.142;17.962;2023-01-25T04:12:31;103032.95;;;-0.06;70.12
77019;BME280;66044;53.142;17.962;2023-01-25T04:14:57;103034.13;;;-0.07;70.02
77019;BME280;66044;53.142;17.962;2023-01-25T04:17:22;103033.69;;;-0.09;70.14
77019;BME280;66044;53.142;17.962;2023-01-25T04:19:48;103030.66;;;-0.11;69.86
77019;BME280;66044;53.142;17.962;2023-01-25T04:22:15;103023.86;;;-0.15;70.21
77019;BME280;66044;53.142;17.962;2023-01-25T04:24:41;103017.23;;;-0.15;70.18
77019;BME280;66044;53.142;17.962;2023-01-25T04:27:08;103008.23;;;-0.12;70.11
77019;BME280;66044;53.142;17.962;2023-01-25T04:29:34;103012.43;;;-0.08;70.12
77019;BME280;66044;53.142;17.962;2023-01-25T04:32:00;103015.50;;;-0.03;70.17
77019;BME280;66044;53.142;17.962;2023-01-25T04:34:27;103019.35;;;0.03;70.11
77019;BME280;66044;53.142;17.962;2023-01-25T04:36:52;103019.32;;;0.05;69.89
77019;BME280;66044;53.142;17.962;2023-01-25T04:39:18;103016.23;;;0.08;69.82
77019;BME280;66044;53.142;17.962;2023-01-25T04:41:44;103014.36;;;0.07;69.79
77019;BME280;66044;53.142;17.962;2023-01-25T04:44:10;103015.13;;;0.04;69.79
77019;BME280;66044;53.142;17.962;2023-01-25T04:46:36;103016.22;;;0.04;70.13
77019;BME280;66044;53.142;17.962;2023-01-25T04:49:02;103015.33;;;0.04;70.03
77019;BME280;66044;53.142;17.962;2023-01-25T04:51:28;103016.70;;;0.03;70.06
77019;BME280;66044;53.142;17.962;2023-01-25T04:53:53;103012.02;;;0.02;69.62
77019;BME280;66044;53.142;17.962;2023-01-25T04:56:19;103013.93;;;-0.01;69.60
77019;BME280;66044;53.142;17.962;2023-01-25T04:58:45;103010.98;;;-0.04;69.90
77019;BME280;66044;53.142;17.962;2023-01-25T05:01:11;103013.16;;;-0.06;70.03
77019;BME280;66044;53.142;17.962;2023-01-25T05:03:37;103009.11;;;-0.08;69.78
77019;BME280;66044;53.142;17.962;2023-01-25T05:06:05;103010.17;;;-0.13;69.72
77019;BME280;66044;53.142;17.962;2023-01-25T05:08:31;103010.41;;;-0.17;69.90
77019;BME280;66044;53.142;17.962;2023-01-25T05:10:57;103012.07;;;-0.17;69.80
77019;BME280;66044;53.142;17.962;2023-01-25T05:13:23;103013.55;;;-0.17;69.95
77019;BME280;66044;53.142;17.962;2023-01-25T05:15:48;103011.91;;;-0.15;69.84
77019;BME280;66044;53.142;17.962;2023-01-25T05:18:14;103010.94;;;-0.14;69.81
77019;BME280;66044;53.142;17.962;2023-01-25T05:20:40;103009.33;;;-0.11;69.82
77019;BME280;66044;53.142;17.962;2023-01-25T05:23:06;103010.65;;;-0.07;69.93
77019;BME280;66044;53.142;17.962;2023-01-25T05:25:32;103011.16;;;-0.02;69.80
77019;BME280;66044;53.142;17.962;2023-01-25T05:28:16;103011.96;;;0.01;69.92
77019;BME280;66044;53.142;17.962;2023-01-25T05:30:42;103008.32;;;0.02;69.97
77019;BME280;66044;53.142;17.962;2023-01-25T05:33:08;103009.63;;;0.03;70.08
77019;BME280;66044;53.142;17.962;2023-01-25T05:35:33;103010.40;;;0.02;69.93
77019;BME280;66044;53.142;17.962;2023-01-25T05:37:59;103012.63;;;0.02;69.89
77019;BME280;66044;53.142;17.962;2023-01-25T05:40:25;103010.39;;;0.01;69.91
77019;BME280;66044;53.142;17.962;2023-01-25T05:42:57;103006.81;;;-0.00;69.83
77019;BME280;66044;53.142;17.962;2023-01-25T05:45:25;103007.29;;;-0.04;69.83
77019;BME280;66044;53.142;17.962;2023-01-25T05:47:52;103002.36;;;-0.05;69.99
77019;BME280;66044;53.142;17.962;2023-01-25T05:50:21;102998.49;;;-0.07;70.11
77019;BME280;66044;53.142;17.962;2023-01-25T05:52:47;102999.30;;;-0.10;69.83
77019;BME280;66044;53.142;17.962;2023-01-25T05:55:13;102997.83;;;-0.11;70.15
77019;BME280;66044;53.142;17.962;2023-01-25T05:57:39;103003.86;;;-0.10;70.04
77019;BME280;66044;53.142;17.962;2023-01-25T06:00:06;103005.98;;;-0.07;69.79
77019;BME280;66044;53.142;17.962;2023-01-25T06:02:32;103007.81;;;-0.05;70.10
77019;BME280;66044;53.142;17.962;2023-01-25T06:04:58;103003.41;;;-0.01;70.11
77019;BME280;66044;53.142;17.962;2023-01-25T06:07:24;103001.95;;;0.04;69.78
77019;BME280;66044;53.142;17.962;2023-01-25T06:09:50;102997.70;;;0.08;69.93
77019;BME280;66044;53.142;17.962;2023-01-25T06:12:19;102997.21;;;0.10;69.98
77019;BME280;66044;53.142;17.962;2023-01-25T06:14:46;102992.30;;;0.10;69.77
77019;BME280;66044;53.142;17.962;2023-01-25T06:17:12;102994.38;;;0.11;70.01
77019;BME280;66044;53.142;17.962;2023-01-25T06:19:38;102992.73;;;0.09;69.97
77019;BME280;66044;53.142;17.962;2023-01-25T06:22:05;102992.05;;;0.08;70.14
77019;BME280;66044;53.142;17.962;2023-01-25T06:24:33;102988.68;;;0.07;69.90
77019;BME280;66044;53.142;17.962;2023-01-25T06:26:59;102985.90;;;0.04;69.92
77019;BME280;66044;53.142;17.962;2023-01-25T06:29:25;102985.84;;;-0.01;69.98
77019;BME280;66044;53.142;17.962;2023-01-25T06:31:51;102982.98;;;-0.05;70.11
77019;BME280;66044;53.142;17.962;2023-01-25T06:34:16;102984.96;;;-0.09;70.10
77019;BME280;66044;53.142;17.962;2023-01-25T06:36:42;102990.10;;;-0.12;70.19
77019;BME280;66044;53.142;17.962;2023-01-25T06:39:08;102987.90;;;-0.16;70.14
77019;BME280;66044;53.142;17.962;2023-01-25T06:41:34;102986.01;;;-0.16;70.23
77019;BME280;66044;53.142;17.962;2023-01-25T06:44:00;102979.50;;;-0.13;70.55
77019;BME280;66044;53.142;17.962;2023-01-25T06:46:25;102977.23;;;-0.11;70.48
77019;BME280;66044;53.142;17.962;2023-01-25T06:48:51;102977.16;;;-0.09;70.56
77019;BME280;66044;53.142;17.962;2023-01-25T06:51:17;102974.80;;;-0.07;70.27
77019;BME280;66044;53.142;17.962;2023-01-25T06:53:44;102970.09;;;-0.08;70.15
77019;BME280;66044;53.142;17.962;2023-01-25T06:56:13;102963.67;;;-0.06;70.41
77019;BME280;66044;53.142;17.962;2023-01-25T06:58:40;102959.54;;;-0.04;70.47
77019;BME280;66044;53.142;17.962;2023-01-25T07:01:17;102959.48;;;-0.02;70.65
77019;BME280;66044;53.142;17.962;2023-01-25T07:03:50;102963.08;;;-0.04;70.60
77019;BME280;66044;53.142;17.962;2023-01-25T07:06:16;102962.13;;;-0.09;70.68
77019;BME280;66044;53.142;17.962;2023-01-25T07:08:42;102963.92;;;-0.13;70.70
77019;BME280;66044;53.142;17.962;2023-01-25T07:11:10;102963.65;;;-0.16;70.42
77019;BME280;66044;53.142;17.962;2023-01-25T07:13:42;102965.47;;;-0.15;70.57
77019;BME280;66044;53.142;17.962;2023-01-25T07:16:13;102959.95;;;-0.13;70.67
77019;BME280;66044;53.142;17.962;2023-01-25T07:18:39;102954.52;;;-0.11;70.60
77019;BME280;66044;53.142;17.962;2023-01-25T07:21:07;102950.34;;;-0.09;70.65
77019;BME280;66044;53.142;17.962;2023-01-25T07:23:34;102945.39;;;-0.08;70.32
77019;BME280;66044;53.142;17.962;2023-01-25T07:26:03;102938.04;;;-0.09;70.77
77019;BME280;66044;53.142;17.962;2023-01-25T07:28:30;102938.69;;;-0.08;70.44
77019;BME280;66044;53.142;17.962;2023-01-25T07:31:02;102938.06;;;-0.08;71.00
77019;BME280;66044;53.142;17.962;2023-01-25T07:33:28;102932.39;;;-0.09;70.97
77019;BME280;66044;53.142;17.962;2023-01-25T07:35:59;102934.09;;;-0.11;71.15
77019;BME280;66044;53.142;17.962;2023-01-25T07:38:24;102928.05;;;-0.12;70.79
77019;BME280;66044;53.142;17.962;2023-01-25T07:40:52;102927.08;;;-0.12;71.04
77019;BME280;66044;53.142;17.962;2023-01-25T07:43:18;102927.08;;;-0.14;71.00
77019;BME280;66044;53.142;17.962;2023-01-25T07:45:45;102926.80;;;-0.12;70.93
77019;BME280;66044;53.142;17.962;2023-01-25T07:48:15;102923.77;;;-0.09;70.92
77019;BME280;66044;53.142;17.962;2023-01-25T07:50:41;102921.98;;;-0.06;70.83
77019;BME280;66044;53.142;17.962;2023-01-25T07:53:15;102919.97;;;-0.03;70.97
77019;BME280;66044;53.142;17.962;2023-01-25T07:55:41;102915.86;;;0.01;70.92
77019;BME280;66044;53.142;17.962;2023-01-25T07:58:07;102908.88;;;0.03;70.96
77019;BME280;66044;53.142;17.962;2023-01-25T08:00:35;102904.83;;;0.05;70.86
77019;BME280;66044;53.142;17.962;2023-01-25T08:03:00;102904.13;;;0.03;70.72
77019;BME280;66044;53.142;17.962;2023-01-25T08:05:26;102908.05;;;0.01;70.84
77019;BME280;66044;53.142;17.962;2023-01-25T08:07:52;102907.57;;;0.01;71.06
77019;BME280;66044;53.142;17.962;2023-01-25T08:10:18;102904.66;;;-0.01;70.98
77019;BME280;66044;53.142;17.962;2023-01-25T08:12:44;102901.77;;;-0.02;71.09
77019;BME280;66044;53.142;17.962;2023-01-25T08:15:12;102898.75;;;-0.02;71.12
77019;BME280;66044;53.142;17.962;2023-01-25T08:17:38;102894.36;;;-0.02;70.89
77019;BME280;66044;53.142;17.962;2023-01-25T08:20:05;102897.99;;;-0.02;70.97
77019;BME280;66044;53.142;17.962;2023-01-25T08:22:32;102893.96;;;0.03;70.84
77019;BME280;66044;53.142;17.962;2023-01-25T08:24:57;102894.87;;;0.06;70.90
77019;BME280;66044;53.142;17.962;2023-01-25T08:27:27;102892.55;;;0.08;70.61
77019;BME280;66044;53.142;17.962;2023-01-25T08:29:53;102884.88;;;0.06;70.81
77019;BME280;66044;53.142;17.962;2023-01-25T08:32:19;102887.25;;;0.03;70.83
77019;BME280;66044;53.142;17.962;2023-01-25T08:34:45;102886.64;;;0.02;70.74
77019;BME280;66044;53.142;17.962;2023-01-25T08:37:12;102885.31;;;-0.00;70.82
77019;BME280;66044;53.142;17.962;2023-01-25T08:39:38;102888.97;;;-0.01;71.12
77019;BME280;66044;53.142;17.962;2023-01-25T08:42:04;102887.29;;;0.01;70.72
77019;BME280;66044;53.142;17.962;2023-01-25T08:44:30;102880.41;;;0.01;70.57
77019;BME280;66044;53.142;17.962;2023-01-25T08:46:56;102869.83;;;0.04;70.95
77019;BME280;66044;53.142;17.962;2023-01-25T08:49:22;102867.11;;;0.11;70.87
77019;BME280;66044;53.142;17.962;2023-01-25T08:51:48;102873.38;;;0.20;70.50
77019;BME280;66044;53.142;17.962;2023-01-25T08:54:15;102867.93;;;0.25;70.41
77019;BME280;66044;53.142;17.962;2023-01-25T08:56:41;102873.92;;;0.29;70.29
77019;BME280;66044;53.142;17.962;2023-01-25T08:59:11;102873.26;;;0.31;70.54
77019;BME280;66044;53.142;17.962;2023-01-25T09:01:37;102877.54;;;0.33;70.36
77019;BME280;66044;53.142;17.962;2023-01-25T09:04:03;102877.70;;;0.32;70.48
77019;BME280;66044;53.142;17.962;2023-01-25T09:06:29;102877.09;;;0.33;70.54
77019;BME280;66044;53.142;17.962;2023-01-25T09:08:57;102875.21;;;0.33;70.60
77019;BME280;66044;53.142;17.962;2023-01-25T09:11:23;102876.12;;;0.34;70.57
77019;BME280;66044;53.142;17.962;2023-01-25T09:13:49;102873.31;;;0.34;70.30
77019;BME280;66044;53.142;17.962;2023-01-25T09:16:18;102869.44;;;0.32;70.31
77019;BME280;66044;53.142;17.962;2023-01-25T09:18:47;102868.89;;;0.29;70.45
77019;BME280;66044;53.142;17.962;2023-01-25T09:21:15;102867.89;;;0.31;70.63
77019;BME280;66044;53.142;17.962;2023-01-25T09:23:42;102866.73;;;0.35;70.14
77019;BME280;66044;53.142;17.962;2023-01-25T09:26:10;102864.20;;;0.38;70.29
77019;BME280;66044;53.142;17.962;2023-01-25T09:28:36;102861.92;;;0.39;70.10
77019;BME280;66044;53.142;17.962;2023-01-25T09:31:05;102856.27;;;0.38;70.14
77019;BME280;66044;53.142;17.962;2023-01-25T09:33:37;102855.99;;;0.37;70.24
77019;BME280;66044;53.142;17.962;2023-01-25T09:36:04;102854.69;;;0.34;70.10
77019;BME280;66044;53.142;17.962;2023-01-25T09:38:31;102859.92;;;0.32;70.16
77019;BME280;66044;53.142;17.962;2023-01-25T09:46:16;102844.36;;;0.28;70.07
77019;BME280;66044;53.142;17.962;2023-01-25T09:52:08;102837.33;;;0.37;70.17
77019;BME280;66044;53.142;17.962;2023-01-25T09:54:43;102833.30;;;0.46;70.23
77019;BME280;66044;53.142;17.962;2023-01-25T09:57:20;102840.36;;;0.52;70.10
77019;BME280;66044;53.142;17.962;2023-01-25T09:59:50;102839.59;;;0.58;70.31
77019;BME280;66044;53.142;17.962;2023-01-25T10:05:00;102835.27;;;0.57;70.24
77019;BME280;66044;53.142;17.962;2023-01-25T10:10:13;102833.12;;;0.56;70.05
77019;BME280;66044;53.142;17.962;2023-01-25T10:12:43;102827.13;;;0.54;70.43
77019;BME280;66044;53.142;17.962;2023-01-25T10:15:17;102826.80;;;0.54;70.16
77019;BME280;66044;53.142;17.962;2023-01-25T10:17:44;102829.25;;;0.53;70.13
77019;BME280;66044;53.142;17.962;2023-01-25T10:20:28;102830.38;;;0.51;70.05
77019;BME280;66044;53.142;17.962;2023-01-25T10:26:24;102814.84;;;0.44;70.16
77019;BME280;66044;53.142;17.962;2023-01-25T10:29:12;102809.88;;;0.43;70.28
77019;BME280;66044;53.142;17.962;2023-01-25T10:32:32;102805.40;;;0.43;70.06
77019;BME280;66044;53.142;17.962;2023-01-25T10:34:45;102801.98;;;0.48;70.04
77019;BME280;66044;53.142;17.962;2023-01-25T10:37:14;102801.86;;;0.51;70.13
77019;BME280;66044;53.142;17.962;2023-01-25T10:39:48;102794.71;;;0.54;70.06
77019;BME280;66044;53.142;17.962;2023-01-25T10:42:19;102785.73;;;0.58;70.10
77019;BME280;66044;53.142;17.962;2023-01-25T10:44:46;102781.36;;;0.62;69.94
77019;BME280;66044;53.142;17.962;2023-01-25T10:47:39;102780.78;;;0.67;70.22
77019;BME280;66044;53.142;17.962;2023-01-25T10:50:08;102772.87;;;0.69;70.14
77019;BME280;66044;53.142;17.962;2023-01-25T10:52:34;102770.39;;;0.70;70.28
77019;BME280;66044;53.142;17.962;2023-01-25T10:57:33;102754.84;;;0.65;70.17
77019;BME280;66044;53.142;17.962;2023-01-25T11:00:04;102749.06;;;0.65;70.46
77019;BME280;66044;53.142;17.962;2023-01-25T11:07:55;102741.35;;;0.57;70.18
77019;BME280;66044;53.142;17.962;2023-01-25T11:10:34;102739.52;;;0.60;70.05
77019;BME280;66044;53.142;17.962;2023-01-25T11:15:39;102730.35;;;0.66;69.91
77019;BME280;66044;53.142;17.962;2023-01-25T11:18:11;102732.66;;;0.67;70.10
77019;BME280;66044;53.142;17.962;2023-01-25T11:20:37;102727.47;;;0.70;70.14
77019;BME280;66044;53.142;17.962;2023-01-25T11:23:20;102720.55;;;0.74;69.92
77019;BME280;66044;53.142;17.962;2023-01-25T11:25:47;102712.88;;;0.76;69.95
77019;BME280;66044;53.142;17.962;2023-01-25T11:30:42;102708.77;;;0.78;69.93
77019;BME280;66044;53.142;17.962;2023-01-25T11:33:09;102711.91;;;0.78;69.75
77019;BME280;66044;53.142;17.962;2023-01-25T11:35:44;102705.31;;;0.79;70.02
77019;BME280;66044;53.142;17.962;2023-01-25T11:38:17;102703.20;;;0.76;69.91
77019;BME280;66044;53.142;17.962;2023-01-25T11:41:32;102704.23;;;0.75;70.04
77019;BME280;66044;53.142;17.962;2023-01-25T11:47:17;102689.96;;;0.77;69.85
77019;BME280;66044;53.142;17.962;2023-01-25T12:00:54;102654.48;;;0.87;69.54
77019;BME280;66044;53.142;17.962;2023-01-25T12:06:16;102648.98;;;0.69;69.78
77019;BME280;66044;53.142;17.962;2023-01-25T12:14:50;102641.17;;;0.66;69.82
77019;BME280;66044;53.142;17.962;2023-01-25T12:17:24;102631.30;;;0.72;69.81
77019;BME280;66044;53.142;17.962;2023-01-25T12:28:45;102600.45;;;0.80;69.73
77019;BME280;66044;53.142;17.962;2023-01-25T12:31:22;102593.61;;;0.74;69.94
77019;BME280;66044;53.142;17.962;2023-01-25T12:33:59;102594.76;;;0.74;69.91
77019;BME280;66044;53.142;17.962;2023-01-25T12:36:47;102589.99;;;0.74;70.01
77019;BME280;66044;53.142;17.962;2023-01-25T12:39:27;102581.17;;;0.73;70.04
77019;BME280;66044;53.142;17.962;2023-01-25T12:42:02;102574.17;;;0.70;69.93
77019;BME280;66044;53.142;17.962;2023-01-25T12:44:35;102570.88;;;0.67;70.09
77019;BME280;66044;53.142;17.962;2023-01-25T12:49:41;102567.33;;;0.67;70.04
77019;BME280;66044;53.142;17.962;2023-01-25T12:52:23;102563.27;;;0.71;70.07
77019;BME280;66044;53.142;17.962;2023-01-25T12:54:54;102565.30;;;0.71;70.05
77019;BME280;66044;53.142;17.962;2023-01-25T12:57:34;102558.30;;;0.71;70.00
77019;BME280;66044;53.142;17.962;2023-01-25T13:05:49;102547.85;;;0.65;69.93
77019;BME280;66044;53.142;17.962;2023-01-25T13:08:33;102542.97;;;0.66;70.25
77019;BME280;66044;53.142;17.962;2023-01-25T13:11:09;102533.58;;;0.64;69.85
77019;BME280;66044;53.142;17.962;2023-01-25T13:13:37;102529.34;;;0.58;69.77
77019;BME280;66044;53.142;17.962;2023-01-25T13:16:23;102523.86;;;0.56;69.64
77019;BME280;66044;53.142;17.962;2023-01-25T13:18:49;102511.01;;;0.62;69.81
77019;BME280;66044;53.142;17.962;2023-01-25T13:26:42;102505.59;;;0.65;69.89
77019;BME280;66044;53.142;17.962;2023-01-25T13:32:00;102499.50;;;0.62;69.85
77019;BME280;66044;53.142;17.962;2023-01-25T13:37:27;102495.55;;;0.59;70.00
77019;BME280;66044;53.142;17.962;2023-01-25T13:44:57;102495.56;;;0.50;70.25
77019;BME280;66044;53.142;17.962;2023-01-25T13:47:28;102491.40;;;0.45;70.10
77019;BME280;66044;53.142;17.962;2023-01-25T13:52:25;102486.73;;;0.44;70.23
77019;BME280;66044;53.142;17.962;2023-01-25T13:54:56;102481.70;;;0.43;70.28
77019;BME280;66044;53.142;17.962;2023-01-25T13:57:24;102479.13;;;0.45;70.44
77019;BME280;66044;53.142;17.962;2023-01-25T14:00:17;102475.36;;;0.48;70.43
77019;BME280;66044;53.142;17.962;2023-01-25T14:02:45;102474.22;;;0.47;70.46
77019;BME280;66044;53.142;17.962;2023-01-25T14:05:19;102475.92;;;0.48;70.37
77019;BME280;66044;53.142;17.962;2023-01-25T14:07:48;102472.03;;;0.48;70.56
77019;BME280;66044;53.142;17.962;2023-01-25T14:10:18;102461.24;;;0.45;70.49
77019;BME280;66044;53.142;17.962;2023-01-25T14:12:49;102459.10;;;0.44;70.45
77019;BME280;66044;53.142;17.962;2023-01-25T14:15:20;102459.17;;;0.42;70.51
77019;BME280;66044;53.142;17.962;2023-01-25T14:18:03;102457.67;;;0.43;70.66
77019;BME280;66044;53.142;17.962;2023-01-25T14:20:29;102453.73;;;0.43;70.45
77019;BME280;66044;53.142;17.962;2023-01-25T14:22:55;102444.86;;;0.40;70.65
77019;BME280;66044;53.142;17.962;2023-01-25T14:25:21;102447.05;;;0.37;70.55
77019;BME280;66044;53.142;17.962;2023-01-25T14:27:56;102444.58;;;0.36;70.57
77019;BME280;66044;53.142;17.962;2023-01-25T14:30:32;102441.95;;;0.35;70.85
77019;BME280;66044;53.142;17.962;2023-01-25T14:33:02;102433.78;;;0.34;70.96
77019;BME280;66044;53.142;17.962;2023-01-25T14:37:54;102424.84;;;0.29;70.88